Time;durP1;ratioP1;P1;durP2;ratioP2;P2;SDS_P1;SDS_P2;PMS_P1;PMS_P2;Temp;Humidity;BMP_temperature;BMP_pressure;BME280_temperature;BME280_humidity;BME280_pressure;Samples;Min_cycle;Max_cycle;Signal;HPM_P1;HPM_P2
2021/08/29 00:00:32;;;;;;;10.00;7.57;;;;;;;15.77;100.00;99884.63;5112947;28;20043;-72
2021/08/29 00:03:01;;;;;;;9.13;6.95;;;;;;;15.69;100.00;99881.75;5113130;28;20051;-72
2021/08/29 00:05:29;;;;;;;10.27;7.38;;;;;;;15.74;100.00;99876.81;5112814;28;20385;-72
2021/08/29 00:07:57;;;;;;;9.57;7.05;;;;;;;15.78;100.00;99883.63;5112911;28;20039;-72
2021/08/29 00:10:27;;;;;;;10.13;6.80;;;;;;;15.77;100.00;99876.53;5113029;28;20408;-71
2021/08/29 00:12:55;;;;;;;11.40;7.22;;;;;;;15.72;100.00;99887.69;5113311;28;20063;-72
2021/08/29 00:15:24;;;;;;;10.45;7.95;;;;;;;15.68;100.00;99880.88;5112739;28;20399;-73
2021/08/29 00:17:52;;;;;;;10.07;7.35;;;;;;;15.69;100.00;99874.53;5112963;28;20164;-72
2021/08/29 00:20:20;;;;;;;10.13;7.53;;;;;;;15.70;100.00;99870.00;5112630;28;20044;-73
2021/08/29 00:22:49;;;;;;;10.02;7.95;;;;;;;15.81;100.00;99867.22;5113181;28;20043;-72
2021/08/29 00:25:18;;;;;;;11.95;8.68;;;;;;;15.67;100.00;99863.06;5113157;28;20467;-71
2021/08/29 00:27:48;;;;;;;11.63;9.57;;;;;;;15.61;100.00;99870.78;5112773;28;20060;-71
2021/08/29 00:30:16;;;;;;;11.82;9.48;;;;;;;15.54;100.00;99869.59;5112965;28;20039;-71
2021/08/29 00:32:46;;;;;;;12.48;9.35;;;;;;;15.48;100.00;99870.13;5113024;28;20050;-71
2021/08/29 00:35:14;;;;;;;12.63;9.18;;;;;;;15.58;100.00;99863.81;5112788;28;20039;-72
2021/08/29 00:37:43;;;;;;;13.32;9.65;;;;;;;15.66;100.00;99863.19;5112393;28;20563;-71
2021/08/29 00:40:12;;;;;;;11.65;9.43;;;;;;;15.55;100.00;99855.19;5112902;28;20046;-71
2021/08/29 00:42:40;;;;;;;12.13;8.75;;;;;;;15.56;100.00;99854.19;5112638;28;20055;-71
2021/08/29 00:45:12;;;;;;;13.75;9.45;;;;;;;15.56;100.00;99840.75;5112947;28;20050;-71
2021/08/29 00:47:40;;;;;;;10.93;9.20;;;;;;;15.59;100.00;99840.47;5112310;28;20077;-71
2021/08/29 00:50:09;;;;;;;11.00;8.95;;;;;;;15.46;100.00;99844.25;5115586;28;20048;-69
2021/08/29 00:52:40;;;;;;;10.32;8.15;;;;;;;15.67;100.00;99841.53;5116004;28;20082;-70
2021/08/29 00:55:10;;;;;;;10.82;8.93;;;;;;;15.53;100.00;99830.25;5115298;28;20134;-69
2021/08/29 00:57:39;;;;;;;11.90;9.40;;;;;;;15.44;100.00;99837.28;5114864;28;20047;-69
2021/08/29 01:00:10;;;;;;;14.10;9.45;;;;;;;15.32;100.00;99833.81;5116248;28;20051;-70
2021/08/29 01:02:41;;;;;;;13.45;9.82;;;;;;;15.24;100.00;99836.31;5116066;28;20043;-70
2021/08/29 01:05:12;;;;;;;13.18;9.88;;;;;;;15.27;100.00;99837.91;5116341;28;20063;-70
2021/08/29 01:07:52;;;;;;;12.65;9.57;;;;;;;15.21;100.00;99831.22;5115987;28;20455;-70
2021/08/29 01:10:27;;;;;;;11.68;9.50;;;;;;;15.22;100.00;99838.28;5116268;28;20088;-70
2021/08/29 01:13:10;;;;;;;13.40;9.63;;;;;;;15.23;100.00;99831.94;5116399;28;20036;-70
2021/08/29 01:15:38;;;;;;;11.48;9.27;;;;;;;15.19;100.00;99827.81;5115884;28;20045;-70
2021/08/29 01:18:09;;;;;;;13.07;10.05;;;;;;;15.17;100.00;99824.41;5115948;28;20040;-70
2021/08/29 01:20:46;;;;;;;13.20;10.13;;;;;;;15.14;100.00;99824.66;5115669;28;20043;-70
2021/08/29 01:23:15;;;;;;;11.10;9.75;;;;;;;15.16;100.00;99817.34;5114818;28;20051;-69
2021/08/29 01:25:49;;;;;;;12.05;10.00;;;;;;;15.15;100.00;99820.97;5115626;28;20047;-70
2021/08/29 01:28:18;;;;;;;11.98;9.07;;;;;;;15.19;100.00;99817.06;5115763;28;20044;-70
2021/08/29 01:30:48;;;;;;;11.82;9.50;;;;;;;15.18;100.00;99823.44;5115312;28;20055;-71
2021/08/29 01:33:19;;;;;;;10.80;8.85;;;;;;;15.17;100.00;99824.41;5114260;28;20048;-69
2021/08/29 01:35:48;;;;;;;12.90;9.68;;;;;;;15.17;100.00;99819.03;5115407;28;20048;-69
2021/08/29 01:38:16;;;;;;;11.18;8.63;;;;;;;15.17;100.00;99822.56;5115535;28;20044;-69
2021/08/29 01:40:45;;;;;;;11.00;8.73;;;;;;;15.27;100.00;99819.94;5115015;28;20113;-69
2021/08/29 01:43:14;;;;;;;12.00;8.43;;;;;;;15.25;100.00;99824.63;5115585;28;20036;-68
2021/08/29 01:45:43;;;;;;;11.73;9.15;;;;;;;15.26;100.00;99829.00;5115010;28;20066;-69
2021/08/29 01:48:13;;;;;;;10.50;7.68;;;;;;;15.27;100.00;99819.09;5115281;28;20069;-68
2021/08/29 01:50:42;;;;;;;11.63;8.38;;;;;;;15.19;100.00;99819.75;5115168;28;20105;-68
2021/08/29 01:53:10;;;;;;;10.60;8.00;;;;;;;15.18;100.00;99820.75;5115352;28;20084;-68
2021/08/29 01:55:39;;;;;;;11.38;8.45;;;;;;;15.18;100.00;99821.59;5114941;28;20494;-69
2021/08/29 01:58:07;;;;;;;12.82;8.70;;;;;;;15.16;100.00;99830.78;5115465;28;20046;-70
2021/08/29 02:00:45;;;;;;;9.80;7.85;;;;;;;15.11;100.00;99814.19;5114583;28;20488;-71
2021/08/29 02:03:15;;;;;;;12.10;8.38;;;;;;;15.11;100.00;99812.34;5115337;28;20502;-70
2021/08/29 02:05:45;;;;;;;12.85;8.90;;;;;;;15.15;100.00;99807.56;5114665;28;20103;-71
2021/08/29 02:08:16;;;;;;;11.57;8.80;;;;;;;15.11;100.00;99808.81;5115180;28;20047;-72
2021/08/29 02:10:49;;;;;;;13.38;8.32;;;;;;;15.10;100.00;99809.81;5114720;28;20089;-72
2021/08/29 02:13:23;;;;;;;10.55;7.18;;;;;;;15.11;100.00;99800.75;5114919;28;20040;-72
2021/08/29 02:15:58;;;;;;;10.68;7.78;;;;;;;15.11;100.00;99803.44;5114919;28;20063;-72
2021/08/29 02:18:30;;;;;;;9.80;7.05;;;;;;;15.09;100.00;99800.91;5114608;28;20484;-73
2021/08/29 02:21:00;;;;;;;8.98;7.22;;;;;;;15.08;100.00;99801.03;5114718;28;20484;-72
2021/08/29 02:23:29;;;;;;;8.65;6.90;;;;;;;15.12;100.00;99789.03;5114197;28;20097;-72
2021/08/29 02:25:58;;;;;;;10.93;6.68;;;;;;;15.11;100.00;99792.69;5114848;28;20039;-72
2021/08/29 02:28:27;;;;;;;9.40;7.82;;;;;;;15.10;100.00;99791.00;5114741;28;20456;-74
2021/08/29 02:30:56;;;;;;;9.75;7.20;;;;;;;15.03;100.00;99793.34;5114579;28;20039;-71
2021/08/29 02:33:25;;;;;;;8.90;7.50;;;;;;;14.89;100.00;99783.81;5114481;28;20040;-71
2021/08/29 02:35:56;;;;;;;8.70;6.30;;;;;;;14.99;100.00;99783.00;5114446;28;20044;-70
2021/08/29 02:38:25;;;;;;;9.68;6.22;;;;;;;15.03;100.00;99779.91;5114623;28;20093;-71
2021/08/29 02:40:55;;;;;;;8.60;5.85;;;;;;;15.01;100.00;99778.34;5114188;28;20463;-71
2021/08/29 02:43:24;;;;;;;8.20;5.88;;;;;;;15.01;100.00;99771.16;5114221;28;20055;-70
2021/08/29 02:45:53;;;;;;;7.82;5.78;;;;;;;15.01;100.00;99765.78;5114229;28;20047;-70
2021/08/29 02:48:25;;;;;;;8.30;5.68;;;;;;;15.04;100.00;99756.59;5114149;28;20395;-70
2021/08/29 02:50:55;;;;;;;9.65;6.63;;;;;;;14.85;100.00;99760.88;5114004;28;20043;-70
2021/08/29 02:53:24;;;;;;;8.98;6.68;;;;;;;14.66;100.00;99760.72;5114321;28;20554;-70
2021/08/29 02:55:55;;;;;;;8.55;5.88;;;;;;;14.57;100.00;99756.13;5113778;28;20089;-71
2021/08/29 02:58:25;;;;;;;9.43;6.70;;;;;;;14.54;100.00;99759.09;5114227;28;20048;-71
2021/08/29 03:00:53;;;;;;;7.30;5.53;;;;;;;14.54;100.00;99757.25;5113678;28;20048;-70
2021/08/29 03:03:22;;;;;;;8.57;6.20;;;;;;;14.50;100.00;99746.94;5113860;28;20511;-69
2021/08/29 03:05:51;;;;;;;8.63;5.97;;;;;;;14.62;100.00;99743.19;5113748;28;20040;-70
2021/08/29 03:08:21;;;;;;;8.85;6.28;;;;;;;14.65;100.00;99742.91;5113871;28;20150;-70
2021/08/29 03:10:49;;;;;;;8.32;6.22;;;;;;;14.41;100.00;99750.34;5113326;28;20035;-70
2021/08/29 03:13:18;;;;;;;9.00;6.43;;;;;;;14.34;100.00;99750.00;5113313;28;20032;-70
2021/08/29 03:15:46;;;;;;;9.48;6.97;;;;;;;14.37;100.00;99743.53;5113299;28;20450;-69
2021/08/29 03:18:16;;;;;;;11.82;6.60;;;;;;;14.33;100.00;99737.56;5113691;28;20067;-70
2021/08/29 03:20:47;;;;;;;10.60;6.57;;;;;;;14.24;100.00;99738.34;5113378;28;20489;-70
2021/08/29 03:23:15;;;;;;;8.70;6.18;;;;;;;14.41;100.00;99743.16;5113761;28;20040;-70
2021/08/29 03:25:45;;;;;;;9.70;6.22;;;;;;;14.32;100.00;99744.78;5113236;28;20049;-70
2021/08/29 03:28:14;;;;;;;10.57;6.45;;;;;;;14.32;100.00;99743.91;5114000;28;20122;-70
2021/08/29 03:30:42;;;;;;;9.25;6.53;;;;;;;14.26;100.00;99742.59;5113077;28;20096;-70
2021/08/29 03:33:11;;;;;;;8.30;5.93;;;;;;;14.27;100.00;99733.56;5113558;28;20035;-70
2021/08/29 03:35:40;;;;;;;9.68;6.30;;;;;;;14.23;100.00;99737.50;5113226;28;20051;-70
2021/08/29 03:38:09;;;;;;;10.63;6.22;;;;;;;14.15;100.00;99734.59;5113337;28;20040;-70
2021/08/29 03:40:39;;;;;;;9.20;6.53;;;;;;;14.08;100.00;99744.13;5112676;28;20119;-70
2021/08/29 03:43:09;;;;;;;9.15;6.45;;;;;;;14.03;100.00;99749.88;5113619;28;20477;-69
2021/08/29 03:45:38;;;;;;;10.88;6.15;;;;;;;14.13;100.00;99754.47;5113155;28;20050;-70
2021/08/29 03:48:07;;;;;;;7.63;5.57;;;;;;;14.11;100.00;99754.59;5113685;28;20043;-70
2021/08/29 03:50:36;;;;;;;9.85;5.72;;;;;;;14.11;100.00;99754.59;5112885;28;20123;-70
2021/08/29 03:53:05;;;;;;;7.85;6.10;;;;;;;13.99;100.00;99750.22;5113314;28;20077;-70
2021/08/29 03:55:34;;;;;;;8.40;5.93;;;;;;;14.04;100.00;99753.41;5112900;28;20074;-70
2021/08/29 03:58:05;;;;;;;7.78;6.22;;;;;;;14.01;100.00;99772.44;5113535;28;20075;-70
2021/08/29 04:00:35;;;;;;;10.90;6.32;;;;;;;14.07;100.00;99769.22;5112891;28;20395;-71
2021/08/29 04:03:04;;;;;;;7.43;5.57;;;;;;;14.10;100.00;99762.78;5113265;28;20071;-70
2021/08/29 04:05:33;;;;;;;8.32;5.90;;;;;;;14.13;100.00;99758.00;5112827;28;20044;-73
2021/08/29 04:08:02;;;;;;;8.43;5.43;;;;;;;14.20;100.00;99753.84;5113306;28;20102;-70
2021/08/29 04:10:31;;;;;;;8.82;5.78;;;;;;;14.12;100.00;99750.09;5113162;28;20050;-70
2021/08/29 04:13:00;;;;;;;9.27;6.05;;;;;;;14.15;100.00;99747.16;5112372;28;20044;-70
2021/08/29 04:15:28;;;;;;;9.10;6.00;;;;;;;14.00;100.00;99738.56;5113000;28;20069;-70
2021/08/29 04:17:58;;;;;;;8.75;5.95;;;;;;;13.93;100.00;99740.03;5111706;28;20077;-71
2021/08/29 04:20:27;;;;;;;9.35;6.47;;;;;;;13.90;100.00;99734.94;5113518;28;20035;-70
2021/08/29 04:22:55;;;;;;;9.55;6.40;;;;;;;13.85;100.00;99727.25;5112809;28;20047;-70
2021/08/29 04:25:25;;;;;;;9.10;5.93;;;;;;;13.96;100.00;99734.41;5116331;28;20039;-70
2021/08/29 04:27:53;;;;;;;9.25;6.45;;;;;;;13.91;100.00;99726.75;5116665;28;20043;-70
2021/08/29 04:30:22;;;;;;;10.18;7.18;;;;;;;13.87;100.00;99725.28;5115898;28;20484;-69
2021/08/29 04:32:53;;;;;;;8.90;6.43;;;;;;;13.99;100.00;99726.97;5115271;28;20047;-69
2021/08/29 04:35:23;;;;;;;10.70;7.03;;;;;;;14.01;100.00;99737.56;5116918;28;20396;-70
2021/08/29 04:37:52;;;;;;;9.65;6.97;;;;;;;14.14;100.00;99732.03;5115339;28;20050;-70
2021/08/29 04:40:21;;;;;;;9.30;6.95;;;;;;;14.05;100.00;99730.97;5116731;28;20381;-70
2021/08/29 04:42:49;;;;;;;9.57;7.28;;;;;;;14.08;100.00;99735.22;5116146;28;20496;-70
2021/08/29 04:45:17;;;;;;;11.45;7.25;;;;;;;14.34;100.00;99736.59;5116544;28;20544;-71
2021/08/29 04:47:45;;;;;;;9.18;7.07;;;;;;;14.40;100.00;99737.91;5116197;28;20047;-71
2021/08/29 04:50:13;;;;;;;10.52;7.85;;;;;;;14.46;100.00;99740.09;5116780;28;20407;-70
2021/08/29 04:52:43;;;;;;;9.68;6.97;;;;;;;14.45;100.00;99735.72;5116258;28;20540;-71
2021/08/29 04:55:11;;;;;;;9.70;7.43;;;;;;;14.44;100.00;99740.19;5116484;28;20374;-70
2021/08/29 04:57:40;;;;;;;10.27;7.32;;;;;;;14.76;100.00;99731.28;5116296;28;20048;-71
2021/08/29 05:00:09;;;;;;;11.43;7.40;;;;;;;14.74;100.00;99726.03;5116529;28;20032;-71
2021/08/29 05:02:38;;;;;;;11.07;8.00;;;;;;;14.83;100.00;99730.63;5115866;28;20043;-71
2021/08/29 05:05:08;;;;;;;11.13;7.97;;;;;;;14.94;100.00;99732.38;5116015;28;20047;-70
2021/08/29 05:07:36;;;;;;;9.75;7.65;;;;;;;15.05;100.00;99734.13;5116018;28;20399;-74
2021/08/29 05:10:07;;;;;;;9.55;7.55;;;;;;;15.00;100.00;99736.38;5116017;28;20047;-71
2021/08/29 05:12:36;;;;;;;10.02;7.82;;;;;;;15.08;100.00;99733.88;5116357;28;20048;-70
2021/08/29 05:15:05;;;;;;;10.27;8.00;;;;;;;15.13;100.00;99737.00;5116283;28;20491;-71
2021/08/29 05:17:34;;;;;;;11.77;8.63;;;;;;;15.08;100.00;99740.09;5115904;28;20145;-70
2021/08/29 05:20:02;;;;;;;11.43;8.43;;;;;;;15.20;100.00;99737.31;5115694;28;20048;-70
2021/08/29 05:22:30;;;;;;;10.70;8.65;;;;;;;15.20;100.00;99732.81;5115853;28;20040;-71
2021/08/29 05:24:58;;;;;;;11.82;8.98;;;;;;;15.48;98.84;99738.44;5115518;28;20467;-70
2021/08/29 05:27:28;;;;;;;11.70;8.88;;;;;;;15.41;99.50;99738.97;5115692;28;20047;-70
2021/08/29 05:29:56;;;;;;;12.30;8.88;;;;;;;15.49;99.16;99748.19;5115574;28;20047;-70
2021/08/29 05:32:24;;;;;;;11.80;8.95;;;;;;;15.39;100.00;99743.63;5115636;28;20047;-70
2021/08/29 05:34:53;;;;;;;10.80;9.20;;;;;;;15.76;97.87;99750.31;5115274;28;20040;-70
2021/08/29 05:37:21;;;;;;;12.38;9.73;;;;;;;15.92;95.89;99740.72;5115446;28;20040;-68
2021/08/29 05:39:49;;;;;;;11.98;9.45;;;;;;;16.09;94.98;99747.25;5115470;28;20040;-70
2021/08/29 05:42:18;;;;;;;13.10;10.23;;;;;;;16.22;94.98;99741.63;5115580;28;20048;-70
2021/08/29 05:44:48;;;;;;;14.05;9.52;;;;;;;16.44;92.84;99746.72;5115196;28;20063;-70
2021/08/29 05:47:18;;;;;;;10.88;8.93;;;;;;;16.36;93.12;99743.03;5115392;28;20035;-70
2021/08/29 05:49:46;;;;;;;11.20;8.80;;;;;;;16.32;92.14;99739.78;5114923;28;20055;-70
2021/08/29 05:52:14;;;;;;;12.00;8.45;;;;;;;16.52;90.49;99746.84;5115579;28;20035;-70
2021/08/29 05:54:42;;;;;;;10.90;8.65;;;;;;;16.73;90.33;99740.50;5114941;28;20055;-70
2021/08/29 05:57:11;;;;;;;10.05;8.43;;;;;;;16.82;89.51;99731.53;5115214;28;20044;-70
2021/08/29 05:59:39;;;;;;;12.73;8.82;;;;;;;16.99;89.61;99746.13;5115300;28;20043;-70
2021/08/29 06:02:09;;;;;;;10.82;8.13;;;;;;;17.04;88.96;99744.66;5115035;28;20039;-70
2021/08/29 06:04:39;;;;;;;9.88;7.53;;;;;;;17.42;86.66;99732.06;5115374;28;20589;-70
2021/08/29 06:07:08;;;;;;;9.23;7.93;;;;;;;17.61;85.80;99729.28;5115259;28;20442;-69
2021/08/29 06:09:36;;;;;;;10.35;7.57;;;;;;;17.87;84.52;99726.75;5114978;28;20043;-67
2021/08/29 06:12:05;;;;;;;8.63;6.90;;;;;;;18.07;82.77;99716.69;5114754;28;20036;-67
2021/08/29 06:14:33;;;;;;;10.07;7.93;;;;;;;18.30;82.28;99717.91;5114878;28;20043;-70
2021/08/29 06:17:04;;;;;;;8.27;6.80;;;;;;;18.84;80.38;99717.88;5114518;28;20064;-70
2021/08/29 06:19:33;;;;;;;8.40;6.82;;;;;;;19.16;76.14;99719.94;5114955;28;20484;-70
2021/08/29 06:22:01;;;;;;;8.70;6.28;;;;;;;19.69;74.69;99716.19;5114221;28;20048;-72
2021/08/29 06:24:30;;;;;;;11.38;6.10;;;;;;;20.30;73.02;99698.72;5114592;28;20043;-71
2021/08/29 06:26:58;;;;;;;9.13;6.30;;;;;;;20.46;71.05;99703.31;5114518;28;20361;-71
2021/08/29 06:29:26;;;;;;;8.82;6.53;;;;;;;20.42;71.26;99700.06;5114534;28;20040;-72
2021/08/29 06:31:56;;;;;;;6.97;5.88;;;;;;;20.76;69.76;99696.38;5113997;28;20035;-69
2021/08/29 06:34:27;;;;;;;7.38;5.95;;;;;;;20.95;68.16;99695.16;5114733;28;20434;-68
2021/08/29 06:36:56;;;;;;;9.02;6.28;;;;;;;20.24;71.33;99704.78;5114580;28;20134;-67
2021/08/29 06:39:24;;;;;;;8.45;6.05;;;;;;;20.32;71.69;99707.50;5114673;28;20044;-67
2021/08/29 06:41:53;;;;;;;9.07;6.30;;;;;;;20.34;71.39;99693.78;5114399;28;20064;-68
2021/08/29 06:44:21;;;;;;;7.78;6.15;;;;;;;19.99;71.30;99702.06;5113897;28;20049;-69
2021/08/29 06:46:50;;;;;;;9.27;6.45;;;;;;;19.97;71.80;99706.75;5113158;28;20043;-70
2021/08/29 06:49:19;;;;;;;9.55;6.20;;;;;;;19.13;75.21;99710.31;5114237;28;20040;-73
2021/08/29 06:51:47;;;;;;;7.75;6.43;;;;;;;19.61;72.63;99700.75;5114104;28;20074;-67
2021/08/29 06:54:17;;;;;;;7.60;6.00;;;;;;;19.93;71.31;99704.56;5114201;28;20390;-66
2021/08/29 06:56:45;;;;;;;7.65;6.15;;;;;;;20.07;71.63;99698.50;5114460;28;20052;-67
2021/08/29 06:59:13;;;;;;;8.68;6.22;;;;;;;19.32;74.01;99698.41;5113996;28;20040;-67
2021/08/29 07:01:41;;;;;;;7.85;6.55;;;;;;;18.55;78.19;99699.22;5113723;28;20044;-67
2021/08/29 07:04:10;;;;;;;8.65;6.55;;;;;;;18.18;79.90;99694.84;5114004;28;20047;-67
2021/08/29 07:06:38;;;;;;;8.18;6.82;;;;;;;18.05;82.25;99699.78;5116402;28;20072;-65
2021/08/29 07:09:06;;;;;;;10.35;6.90;;;;;;;17.94;82.74;99702.69;5114039;28;20047;-65
2021/08/29 07:11:36;;;;;;;9.25;6.93;;;;;;;18.19;80.54;99703.78;5113725;28;20040;-67
2021/08/29 07:14:04;;;;;;;8.60;6.57;;;;;;;18.23;79.19;99706.03;5113662;28;20039;-67
2021/08/29 07:16:32;;;;;;;9.88;6.60;;;;;;;18.21;80.31;99705.34;5113581;28;20134;-68
2021/08/29 07:19:01;;;;;;;8.60;6.53;;;;;;;18.23;81.34;99697.91;5111210;28;20039;-71
2021/08/29 07:21:29;;;;;;;8.68;6.20;;;;;;;18.12;80.70;99690.06;5095928;28;20051;-70
2021/08/29 07:23:57;;;;;;;9.70;6.30;;;;;;;18.20;79.10;99686.59;5093243;28;20044;-68
2021/08/29 07:26:26;;;;;;;8.95;6.30;;;;;;;18.15;80.10;99686.22;5092876;28;20123;-65
2021/08/29 07:28:55;;;;;;;8.23;6.57;;;;;;;18.11;80.68;99685.66;5092806;28;20130;-69
2021/08/29 07:31:25;;;;;;;8.25;5.97;;;;;;;18.01;82.18;99680.34;5092638;28;20047;-67
2021/08/29 07:33:55;;;;;;;8.68;5.70;;;;;;;18.20;79.83;99673.94;5093174;28;20059;-66
2021/08/29 07:36:23;;;;;;;9.82;5.82;;;;;;;18.29;79.39;99678.41;5092169;28;20123;-72
2021/08/29 07:38:53;;;;;;;8.27;5.80;;;;;;;18.29;78.83;99678.41;5092695;28;20473;-70
2021/08/29 07:41:21;;;;;;;8.30;5.50;;;;;;;18.17;80.18;99676.97;5092539;28;20412;-70
2021/08/29 07:43:50;;;;;;;6.75;5.30;;;;;;;18.11;80.83;99677.56;5092876;28;20044;-69
2021/08/29 07:46:24;;;;;;;7.15;4.95;;;;;;;18.25;80.28;99670.78;5092699;28;20036;-69
2021/08/29 07:48:52;;;;;;;6.38;4.85;;;;;;;18.42;80.01;99679.88;5097277;28;20042;-70
2021/08/29 07:51:21;;;;;;;7.80;4.50;;;;;;;18.39;78.58;99677.47;5112800;28;20065;-68
2021/08/29 07:53:51;;;;;;;7.43;4.72;;;;;;;18.27;79.72;99669.63;5113128;28;20515;-66
2021/08/29 07:56:19;;;;;;;6.10;4.68;;;;;;;18.24;79.25;99669.09;5112913;28;20040;-73
2021/08/29 07:58:50;;;;;;;6.07;4.13;;;;;;;18.46;78.54;99667.75;5115332;28;20042;-72
2021/08/29 08:01:20;;;;;;;6.25;4.10;;;;;;;18.36;78.21;99667.84;5117193;28;20101;-71
2021/08/29 08:03:48;;;;;;;5.85;4.25;;;;;;;18.24;80.51;99659.16;5117338;27;20047;-72
2021/08/29 08:06:21;;;;;;;;;;;;;;;18.30;81.49;99661.22;5117670;28;20036;-71
2021/08/29 08:08:49;;;;;;;6.13;4.13;;;;;;;18.42;80.01;99661.81;5116962;28;19920;-71
2021/08/29 08:11:18;;;;;;;5.43;4.25;;;;;;;18.38;80.40;99662.28;5116722;28;20047;-70
2021/08/29 08:13:46;;;;;;;6.15;3.95;;;;;;;18.39;77.83;99656.72;5115794;28;20058;-71
2021/08/29 08:16:15;;;;;;;6.20;4.40;;;;;;;18.37;77.85;99660.59;5116704;28;20047;-70
2021/08/29 08:18:47;;;;;;;8.70;4.65;;;;;;;18.47;78.30;99650.56;5116739;28;20047;-68
2021/08/29 08:21:15;;;;;;;5.90;4.35;;;;;;;18.39;78.13;99651.34;5116843;28;20382;-69
2021/08/29 08:23:43;;;;;;;6.00;4.18;;;;;;;18.62;78.64;99651.66;5116872;28;20040;-70
2021/08/29 08:26:11;;;;;;;6.32;3.72;;;;;;;18.63;77.28;99647.97;5116709;28;20525;-70
2021/08/29 08:28:40;;;;;;;6.22;4.30;;;;;;;18.68;76.90;99645.66;5116413;28;20040;-70
2021/08/29 08:31:08;;;;;;;5.47;3.95;;;;;;;18.74;77.73;99644.19;5116495;28;20046;-69
2021/08/29 08:33:37;;;;;;;6.55;3.88;;;;;;;18.84;77.07;99643.06;5116643;28;20044;-68
2021/08/29 08:36:06;;;;;;;5.65;3.67;;;;;;;18.86;77.85;99642.91;5115259;28;20054;-70
2021/08/29 08:38:35;;;;;;;4.10;3.15;;;;;;;19.12;75.01;99653.69;5116465;28;20445;-70
2021/08/29 08:41:03;;;;;;;5.20;2.97;;;;;;;19.12;74.76;99638.31;5115822;28;20056;-70
2021/08/29 08:43:31;;;;;;;4.57;2.72;;;;;;;19.23;75.20;99642.59;5116427;28;20070;-69
2021/08/29 08:46:00;;;;;;;3.75;2.20;;;;;;;19.19;69.36;99643.06;5116111;28;20640;-69
2021/08/29 08:48:29;;;;;;;4.00;2.40;;;;;;;19.22;68.56;99640.91;5115880;28;20047;-69
2021/08/29 08:50:59;;;;;;;3.47;2.10;;;;;;;19.20;68.11;99640.19;5116047;28;20055;-69
2021/08/29 08:53:31;;;;;;;3.45;2.10;;;;;;;19.34;66.20;99641.47;5116372;28;20039;-69
2021/08/29 08:56:00;;;;;;;3.60;2.25;;;;;;;19.28;65.97;99637.53;5115925;28;20131;-69
2021/08/29 08:58:39;;;;;;;2.95;2.00;;;;;;;19.31;65.10;99639.94;5116356;28;20068;-69
2021/08/29 09:01:08;;;;;;;4.18;2.30;;;;;;;19.30;66.22;99640.94;5116129;28;20055;-69
2021/08/29 09:03:40;;;;;;;4.70;2.30;;;;;;;19.43;66.32;99633.22;5115997;28;20048;-69
2021/08/29 09:06:11;;;;;;;4.18;2.50;;;;;;;19.48;66.59;99632.69;5115995;28;20096;-69
2021/08/29 09:08:40;;;;;;;4.45;2.25;;;;;;;19.54;67.65;99626.66;5115724;28;20400;-70
2021/08/29 09:11:09;;;;;;;4.18;2.53;;;;;;;19.50;67.78;99635.28;5115499;28;20101;-69
2021/08/29 09:13:55;;;;;;;5.03;2.80;;;;;;;19.42;67.58;99631.53;5115722;28;20123;-69
2021/08/29 09:16:26;;;;;;;3.85;2.40;;;;;;;19.64;66.99;99637.34;5115732;28;20047;-70
2021/08/29 09:18:56;;;;;;;3.88;2.50;;;;;;;19.56;67.50;99629.22;5115068;27;20040;-71
2021/08/29 09:21:26;;;;;;;3.22;2.30;;;;;;;19.56;66.81;99629.22;5115884;28;20043;-69
2021/08/29 09:23:58;;;;;;;3.63;2.28;;;;;;;19.60;64.05;99630.59;5115748;28;20451;-70
2021/08/29 09:26:29;;;;;;;3.35;2.00;;;;;;;19.65;64.11;99620.94;5115754;28;20032;-66
2021/08/29 09:28:59;;;;;;;3.90;2.00;;;;;;;19.66;63.25;99628.06;5115484;28;20042;-68
2021/08/29 09:31:42;;;;;;;5.00;2.08;;;;;;;19.92;64.22;99627.94;5115347;28;20136;-68
2021/08/29 09:34:10;;;;;;;4.55;1.92;;;;;;;20.09;62.25;99625.25;5115815;27;20044;-68
2021/08/29 09:36:39;;;;;;;4.28;1.75;;;;;;;19.90;62.13;99638.09;5115402;28;20040;-68
2021/08/29 09:39:14;;;;;;;3.22;2.03;;;;;;;19.72;62.84;99631.97;5115688;28;20039;-66
2021/08/29 09:41:43;;;;;;;3.42;2.30;;;;;;;19.81;61.68;99639.09;5115166;28;20142;-65
2021/08/29 09:44:12;;;;;;;3.83;2.17;;;;;;;19.86;61.72;99628.59;5115586;28;20047;-65
2021/08/29 09:46:55;;;;;;;3.67;1.95;;;;;;;19.95;61.44;99641.13;5115490;28;20039;-65
2021/08/29 09:49:24;;;;;;;2.30;1.70;;;;;;;20.00;61.03;99633.38;5115727;28;20469;-65
2021/08/29 09:51:53;;;;;;;5.15;1.95;;;;;;;19.96;61.71;99629.28;5115245;28;20039;-65
2021/08/29 09:54:31;;;;;;;3.65;1.90;;;;;;;20.14;61.17;99629.13;5115338;28;20108;-65
2021/08/29 09:57:00;;;;;;;3.72;2.10;;;;;;;20.27;60.63;99625.94;5114202;28;20070;-65
2021/08/29 09:59:49;;;;;;;3.90;2.38;;;;;;;20.36;61.22;99621.34;5115411;28;20039;-65
2021/08/29 10:02:20;;;;;;;5.13;2.22;;;;;;;20.45;59.48;99621.19;5115247;27;20044;-65
2021/08/29 10:04:49;;;;;;;3.60;2.20;;;;;;;20.53;59.58;99618.47;5115124;28;20052;-65
2021/08/29 10:07:20;;;;;;;3.72;2.45;;;;;;;20.70;59.67;99615.75;5115154;28;20047;-65
2021/08/29 10:09:49;;;;;;;3.80;2.00;;;;;;;20.74;58.58;99620.63;5115138;28;20035;-65
2021/08/29 10:12:18;;;;;;;2.92;1.80;;;;;;;20.75;57.28;99613.34;5115155;28;20044;-66
2021/08/29 10:14:48;;;;;;;3.55;1.85;;;;;;;20.47;56.28;99619.19;5114276;28;20043;-65
2021/08/29 10:17:16;;;;;;;3.63;2.17;;;;;;;20.63;57.68;99618.28;5114789;28;20040;-66
2021/08/29 10:19:48;;;;;;;4.28;2.15;;;;;;;20.65;57.63;99615.41;5114634;28;20089;-67
2021/08/29 10:22:17;;;;;;;3.30;1.92;;;;;;;20.88;56.63;99620.97;5113798;28;20400;-66
2021/08/29 10:24:50;;;;;;;4.13;2.00;;;;;;;21.01;54.43;99611.25;5110797;28;20040;-71
2021/08/29 10:27:20;;;;;;;4.07;1.90;;;;;;;20.97;53.52;99607.22;5114714;28;20096;-69
2021/08/29 10:29:52;;;;;;;2.85;1.85;;;;;;;21.09;55.84;99594.97;5114194;28;20031;-70
2021/08/29 10:32:27;;;;;;;4.40;2.00;;;;;;;21.18;55.56;99594.94;5114517;28;20515;-69
2021/08/29 10:34:55;;;;;;;3.00;1.92;;;;;;;21.24;54.44;99599.66;5114282;28;20121;-69
2021/08/29 10:37:24;;;;;;;4.07;2.20;;;;;;;21.19;54.13;99588.47;5114238;28;20039;-69
2021/08/29 10:39:54;;;;;;;2.95;1.75;;;;;;;21.19;53.14;99593.91;5114135;28;20164;-71
2021/08/29 10:42:24;;;;;;;3.40;2.08;;;;;;;21.18;53.23;99595.78;5114236;28;20100;-71
2021/08/29 10:44:52;;;;;;;3.00;1.83;;;;;;;21.06;53.42;99589.06;5114050;28;20067;-67
2021/08/29 10:47:23;;;;;;;2.30;1.65;;;;;;;20.87;53.25;99584.88;5114047;28;20400;-66
2021/08/29 10:49:53;;;;;;;3.60;1.63;;;;;;;20.77;51.75;99595.09;5114008;28;20469;-67
2021/08/29 10:52:23;;;;;;;3.90;1.90;;;;;;;20.73;53.43;99581.00;5114032;28;20066;-66
2021/08/29 10:54:52;;;;;;;3.35;1.70;;;;;;;20.95;52.40;99584.03;5113311;28;20389;-67
2021/08/29 10:57:33;;;;;;;3.90;1.80;;;;;;;21.25;49.81;99583.22;5113819;28;20046;-66
2021/08/29 11:00:05;;;;;;;3.85;1.98;;;;;;;21.49;50.24;99573.25;5113549;28;20476;-66
2021/08/29 11:02:38;;;;;;;3.00;1.88;;;;;;;21.67;49.10;99574.69;5113918;28;20067;-67
2021/08/29 11:05:09;;;;;;;2.63;1.80;;;;;;;21.84;49.04;99574.56;5113396;28;20066;-69
2021/08/29 11:07:47;;;;;;;4.20;1.88;;;;;;;21.89;49.32;99572.97;5114047;28;20050;-68
2021/08/29 11:10:43;;;;;;;3.35;1.80;;;;;;;22.00;46.26;99575.28;5113533;28;20039;-69
2021/08/29 11:13:36;;;;;;;3.05;1.90;;;;;;;21.78;43.62;99575.28;5113690;28;20430;-69
2021/08/29 11:16:24;;;;;;;3.45;1.75;;;;;;;21.65;48.22;99575.88;5113412;28;20044;-69
2021/08/29 11:19:13;;;;;;;4.82;1.90;;;;;;;21.66;50.38;99572.16;5113968;28;20168;-70
2021/08/29 11:22:20;;;;;;;2.42;1.70;;;;;;;21.33;50.29;99571.50;5113140;28;20067;-69
2021/08/29 11:24:51;;;;;;;3.70;1.52;;;;;;;20.99;49.93;99569.94;5112838;28;20545;-69
2021/08/29 11:27:56;;;;;;;2.20;1.42;;;;;;;20.84;49.37;99572.53;5112936;28;20054;-68
2021/08/29 11:30:28;;;;;;;2.72;1.60;;;;;;;21.06;49.20;99570.06;5113490;28;20473;-66
2021/08/29 11:33:08;;;;;;;2.10;1.55;;;;;;;21.39;49.29;99562.63;5115183;28;20088;-68
2021/08/29 11:35:43;;;;;;;4.38;1.50;;;;;;;21.60;48.36;99562.84;5113051;28;20486;-66
2021/08/29 11:38:14;;;;;;;2.58;1.40;;;;;;;21.87;48.01;99564.19;5113323;28;20495;-66
2021/08/29 11:40:52;;;;;;;2.38;1.27;;;;;;;21.60;46.75;99562.84;5112582;28;20488;-67